Time;durP1;ratioP1;P1;durP2;ratioP2;P2;SDS_P1;SDS_P2;PMS_P1;PMS_P2;Temp;Humidity;BMP_temperature;BMP_pressure;BME280_temperature;BME280_humidity;BME280_pressure;Samples;Min_cycle;Max_cycle;Signal;HPM_P1;HPM_P2
2021/04/10 00:01:11;;;;;;;10.83;7.13;;;3.10;71.50;;;;;;5094082;28;20200;-71
2021/04/10 00:03:37;;;;;;;13.80;8.13;;;3.10;71.40;;;;;;5092191;28;20250;-71
2021/04/10 00:06:03;;;;;;;12.17;6.63;;;3.00;71.70;;;;;;5090319;28;20231;-70
2021/04/10 00:08:29;;;;;;;17.37;9.47;;;3.00;72.00;;;;;;5093310;28;20620;-71
2021/04/10 00:10:55;;;;;;;14.40;8.97;;;3.00;72.30;;;;;;5095969;28;20288;-71
2021/04/10 00:13:21;;;;;;;14.23;8.20;;;2.90;72.20;;;;;;5094373;28;20234;-71
2021/04/10 00:15:47;;;;;;;14.00;9.23;;;2.90;72.20;;;;;;5079308;28;20721;-71
2021/04/10 00:18:12;;;;;;;13.43;8.37;;;2.90;72.80;;;;;;5094056;28;20173;-71
2021/04/10 00:20:38;;;;;;;15.77;8.57;;;2.90;73.00;;;;;;5093955;28;20186;-71
2021/04/10 00:23:04;;;;;;;10.20;5.43;;;2.80;72.60;;;;;;5095827;28;20217;-70
2021/04/10 00:25:29;;;;;;;13.70;5.60;;;2.80;72.40;;;;;;5098516;28;20175;-71
2021/04/10 00:27:55;;;;;;;13.50;7.20;;;2.80;72.50;;;;;;5095167;28;20277;-71
2021/04/10 00:30:21;;;;;;;9.63;5.70;;;2.70;72.50;;;;;;5091398;28;20254;-71
2021/04/10 00:32:47;;;;;;;12.00;6.83;;;2.70;72.60;;;;;;5088742;28;20600;-71
2021/04/10 00:35:13;;;;;;;8.93;6.07;;;2.70;73.10;;;;;;5101066;28;20200;-71
2021/04/10 00:37:39;;;;;;;14.23;7.13;;;2.60;72.90;;;;;;5094572;28;21511;-70
2021/04/10 00:40:06;;;;;;;6.07;5.37;;;2.60;73.20;;;;;;5093452;28;20179;-70
2021/04/10 00:42:33;;;;;;;14.77;7.40;;;2.60;73.50;;;;;;5097825;28;20173;-71
2021/04/10 00:44:59;;;;;;;8.57;5.30;;;2.50;73.90;;;;;;5096667;28;20543;-70
2021/04/10 00:47:25;;;;;;;15.03;7.90;;;2.50;73.80;;;;;;5095183;28;20193;-70
2021/04/10 00:49:50;;;;;;;13.77;7.17;;;2.50;73.80;;;;;;5095304;28;20186;-70
2021/04/10 00:52:18;;;;;;;13.97;7.27;;;2.50;73.70;;;;;;5095619;28;20280;-71
2021/04/10 00:54:47;;;;;;;11.63;6.77;;;2.50;73.60;;;;;;5092871;28;20247;-70
2021/04/10 00:57:13;;;;;;;13.20;5.60;;;2.50;73.30;;;;;;5097855;28;20295;-72
2021/04/10 00:59:39;;;;;;;8.63;5.27;;;2.50;73.40;;;;;;5090192;28;20977;-71
2021/04/10 01:02:07;;;;;;;7.00;5.53;;;2.50;73.30;;;;;;5098216;28;20178;-71
2021/04/10 01:04:33;;;;;;;14.67;5.77;;;2.50;73.20;;;;;;5092501;28;20173;-71
2021/04/10 01:06:59;;;;;;;9.87;5.83;;;2.50;73.40;;;;;;5095228;28;20187;-71
2021/04/10 01:09:25;;;;;;;10.63;4.97;;;2.50;73.30;;;;;;5092450;28;21048;-70
2021/04/10 01:11:59;;;;;;;6.63;5.43;;;2.50;73.30;;;;;;5092197;28;20210;-70
2021/04/10 01:14:34;;;;;;;10.27;5.93;;;2.40;73.30;;;;;;5093396;28;20185;-70
2021/04/10 01:17:04;;;;;;;12.87;6.43;;;2.40;73.60;;;;;;5093785;28;20220;-70
2021/04/10 01:20:00;;;;;;;7.90;5.03;;;2.40;73.60;;;;;;5095320;28;20188;-70
2021/04/10 01:22:29;;;;;;;9.80;5.87;;;2.40;73.60;;;;;;5092694;28;20565;-70
2021/04/10 01:25:06;;;;;;;6.07;5.23;;;2.30;73.70;;;;;;5088604;28;20189;-70
2021/04/10 01:27:54;;;;;;;13.53;6.07;;;2.30;73.60;;;;;;5087544;28;20182;-71
2021/04/10 01:30:21;;;;;;;10.03;6.60;;;2.30;73.20;;;;;;5089115;28;20217;-70
2021/04/10 01:33:02;;;;;;;12.03;6.97;;;2.20;73.50;;;;;;5094246;28;20690;-71
2021/04/10 01:35:33;;;;;;;8.27;4.87;;;2.20;73.90;;;;;;5088922;28;20185;-72
2021/04/10 01:38:02;;;;;;;9.97;6.40;;;2.20;73.90;;;;;;5092400;28;20263;-71
2021/04/10 01:40:32;;;;;;;12.30;6.03;;;2.20;74.00;;;;;;5091589;28;20188;-71
2021/04/10 01:42:59;;;;;;;10.30;7.10;;;2.10;74.30;;;;;;5092923;28;20222;-70
2021/04/10 01:45:27;;;;;;;10.10;5.77;;;2.10;74.50;;;;;;5094597;28;20177;-70
2021/04/10 01:48:08;;;;;;;12.83;6.17;;;2.10;74.80;;;;;;5094547;28;20193;-70
2021/04/10 01:50:35;;;;;;;7.27;4.43;;;2.00;75.10;;;;;;5093409;28;20588;-70
2021/04/10 01:53:04;;;;;;;11.93;6.37;;;2.00;75.10;;;;;;5093629;28;20197;-71
2021/04/10 01:55:30;;;;;;;7.33;5.07;;;2.00;75.20;;;;;;5095466;28;20662;-69
2021/04/10 01:57:57;;;;;;;9.67;4.93;;;1.90;75.10;;;;;;5094546;28;20572;-69
2021/04/10 02:00:28;;;;;;;15.70;5.23;;;1.90;75.00;;;;;;5095178;28;20580;-70
2021/04/10 02:02:55;;;;;;;6.63;4.33;;;1.80;74.90;;;;;;5088570;28;20566;-70
2021/04/10 02:05:22;;;;;;;8.23;4.90;;;1.90;75.10;;;;;;5088761;28;20595;-69
2021/04/10 02:07:49;;;;;;;7.17;4.80;;;1.80;75.30;;;;;;5098503;28;20360;-70
2021/04/10 02:10:21;;;;;;;6.10;4.13;;;1.80;75.20;;;;;;5092010;28;20207;-71
2021/04/10 02:12:50;;;;;;;6.40;3.57;;;1.80;75.40;;;;;;5093082;28;20182;-69
2021/04/10 02:15:16;;;;;;;5.77;4.53;;;1.70;76.00;;;;;;5092552;28;20174;-70
2021/04/10 02:17:41;;;;;;;6.40;4.50;;;1.70;76.10;;;;;;5092423;28;20702;-70
2021/04/10 02:20:12;;;;;;;9.93;5.07;;;1.70;76.40;;;;;;5088159;28;20654;-70
2021/04/10 02:22:44;;;;;;;7.23;4.57;;;1.60;76.20;;;;;;5093611;28;20162;-70
2021/04/10 02:25:11;;;;;;;5.93;3.93;;;1.60;76.00;;;;;;5088654;28;20176;-70
2021/04/10 02:27:38;;;;;;;4.57;3.80;;;1.60;76.50;;;;;;5089238;28;20181;-68
2021/04/10 02:30:07;;;;;;;3.50;3.20;;;1.60;76.70;;;;;;5092218;28;20193;-70
2021/04/10 02:32:44;;;;;;;6.43;3.67;;;1.50;76.60;;;;;;5094187;28;20190;-70
2021/04/10 02:35:24;;;;;;;3.77;3.17;;;1.50;76.40;;;;;;5089966;28;20193;-70
2021/04/10 02:37:51;;;;;;;8.73;5.00;;;1.50;76.70;;;;;;5084156;28;20189;-70
2021/04/10 02:40:20;;;;;;;8.10;4.43;;;1.50;76.60;;;;;;5096142;28;20182;-69
2021/04/10 02:42:48;;;;;;;6.13;4.33;;;1.40;77.10;;;;;;5093427;28;20257;-69
2021/04/10 02:45:20;;;;;;;5.97;4.60;;;1.40;76.80;;;;;;5095120;28;22020;-70
2021/04/10 02:47:49;;;;;;;4.70;4.20;;;1.40;77.00;;;;;;5096378;28;20231;-69
2021/04/10 02:50:17;;;;;;;8.83;3.80;;;1.40;77.00;;;;;;5094680;28;20592;-69
2021/04/10 02:52:47;;;;;;;8.10;4.93;;;1.40;76.90;;;;;;5097522;28;20184;-69
2021/04/10 02:55:17;;;;;;;7.07;4.50;;;1.40;76.80;;;;;;5095550;28;20212;-69
2021/04/10 02:57:43;;;;;;;8.97;4.37;;;1.40;76.80;;;;;;5092303;28;20171;-69
2021/04/10 03:00:10;;;;;;;9.60;4.37;;;1.40;77.00;;;;;;5091207;28;20182;-69
2021/04/10 03:02:37;;;;;;;6.10;3.67;;;1.40;76.90;;;;;;5093359;28;20170;-69
2021/04/10 03:05:04;;;;;;;3.73;3.40;;;1.40;76.90;;;;;;5077283;28;20178;-71
2021/04/10 03:07:30;;;;;;;5.17;4.40;;;1.40;77.70;;;;;;5097887;28;20186;-70
2021/04/10 03:09:57;;;;;;;16.83;5.03;;;1.30;78.00;;;;;;5100358;28;20579;-70
2021/04/10 03:12:23;;;;;;;6.17;3.93;;;1.30;78.00;;;;;;5094188;28;20291;-71
2021/04/10 03:14:50;;;;;;;7.00;4.50;;;1.30;77.90;;;;;;5098155;28;20750;-70
2021/04/10 03:17:18;;;;;;;10.93;4.70;;;1.30;77.90;;;;;;5093167;28;20182;-71
2021/04/10 03:19:45;;;;;;;5.13;3.97;;;1.30;78.80;;;;;;5100453;28;20178;-70
2021/04/10 03:22:13;;;;;;;5.53;4.10;;;1.30;79.00;;;;;;5093154;28;20563;-70
2021/04/10 03:24:39;;;;;;;6.97;3.87;;;1.30;79.30;;;;;;5099492;28;20195;-71
2021/04/10 03:27:05;;;;;;;7.80;5.20;;;1.20;79.10;;;;;;5092906;28;20169;-70
2021/04/10 03:29:32;;;;;;;6.83;4.90;;;1.20;79.00;;;;;;5096011;28;20184;-70
2021/04/10 03:31:59;;;;;;;5.20;3.87;;;1.20;78.90;;;;;;5087801;28;20266;-70
2021/04/10 03:34:25;;;;;;;5.60;3.83;;;1.20;78.60;;;;;;5102061;28;20185;-70
2021/04/10 03:36:55;;;;;;;6.83;4.20;;;1.20;78.20;;;;;;5095731;28;20282;-71
2021/04/10 03:39:21;;;;;;;4.43;3.10;;;1.20;78.00;;;;;;5096388;28;20563;-70
2021/04/10 03:41:47;;;;;;;6.20;4.27;;;1.20;78.00;;;;;;5095889;28;20265;-71
2021/04/10 03:44:12;;;;;;;8.60;4.23;;;1.20;78.40;;;;;;5100363;28;20261;-70
2021/04/10 03:46:38;;;;;;;4.50;3.60;;;1.20;78.30;;;;;;5096840;28;20197;-70
2021/04/10 03:49:05;;;;;;;5.03;3.50;;;1.10;78.30;;;;;;5099335;28;20186;-70
2021/04/10 03:51:32;;;;;;;7.07;3.83;;;1.10;78.40;;;;;;5099326;28;20200;-70
2021/04/10 03:53:58;;;;;;;4.30;2.90;;;1.10;78.60;;;;;;5092163;28;20228;-70
2021/04/10 03:56:24;;;;;;;4.13;3.20;;;1.00;78.90;;;;;;5096626;28;20858;-70
2021/04/10 03:58:50;;;;;;;4.50;2.33;;;1.00;78.80;;;;;;5093065;28;20239;-70
2021/04/10 04:01:15;;;;;;;2.90;2.70;;;1.00;78.70;;;;;;5097838;28;20217;-71
2021/04/10 04:03:41;;;;;;;3.57;3.30;;;1.00;78.90;;;;;;5100265;28;20231;-70
2021/04/10 04:06:07;;;;;;;3.50;3.20;;;0.90;79.10;;;;;;5098059;28;20185;-70
2021/04/10 04:08:35;;;;;;;5.40;3.53;;;0.90;79.00;;;;;;5098032;28;20222;-70
2021/04/10 04:11:00;;;;;;;2.40;2.20;;;0.90;79.10;;;;;;5096430;28;20225;-70
2021/04/10 04:13:26;;;;;;;2.80;2.60;;;0.90;79.30;;;;;;5093537;28;20716;-70
2021/04/10 04:15:52;;;;;;;6.30;3.10;;;0.90;79.20;;;;;;5094561;28;20594;-69
2021/04/10 04:18:19;;;;;;;3.43;2.90;;;0.90;79.20;;;;;;5089746;28;20711;-70
2021/04/10 04:20:44;;;;;;;3.60;3.00;;;0.90;79.30;;;;;;5078786;28;20266;-70
2021/04/10 04:23:10;;;;;;;2.70;2.50;;;1.00;79.50;;;;;;5092355;28;20189;-69
2021/04/10 04:25:36;;;;;;;3.30;2.23;;;1.00;79.50;;;;;;5096800;28;20236;-70
2021/04/10 04:28:02;;;;;;;3.10;2.80;;;1.00;79.40;;;;;;5093777;28;20266;-70
2021/04/10 04:30:28;;;;;;;6.70;3.10;;;1.00;79.30;;;;;;5092536;28;20706;-70
2021/04/10 04:32:53;;;;;;;3.37;3.17;;;1.00;79.30;;;;;;5090326;28;20186;-70
2021/04/10 04:35:19;;;;;;;4.70;3.80;;;1.00;79.20;;;;;;5094491;28;20199;-69
2021/04/10 04:37:45;;;;;;;5.17;4.33;;;1.00;79.20;;;;;;5090481;28;20182;-70
2021/04/10 04:40:11;;;;;;;4.33;3.20;;;1.00;79.20;;;;;;5099017;28;20243;-69
2021/04/10 04:42:37;;;;;;;7.37;4.47;;;1.10;79.00;;;;;;5093614;28;20182;-69
2021/04/10 04:45:05;;;;;;;6.37;4.30;;;1.10;79.00;;;;;;5093316;28;20187;-70
2021/04/10 04:47:31;;;;;;;9.07;4.27;;;1.20;79.00;;;;;;5092649;28;20189;-69
2021/04/10 04:49:57;;;;;;;6.83;3.43;;;1.20;78.90;;;;;;5076337;28;20191;-70
2021/04/10 04:52:23;;;;;;;7.10;3.77;;;1.20;78.90;;;;;;5091308;28;20263;-70
2021/04/10 04:54:49;;;;;;;8.37;2.97;;;1.20;78.80;;;;;;5092853;28;20188;-70
2021/04/10 04:57:15;;;;;;;3.73;3.47;;;1.30;79.00;;;;;;5095367;28;20189;-69
2021/04/10 04:59:40;;;;;;;4.67;3.57;;;1.30;78.80;;;;;;5095092;28;20186;-70
2021/04/10 05:02:06;;;;;;;5.07;3.10;;;1.30;78.70;;;;;;5092549;28;20244;-69
2021/04/10 05:04:32;;;;;;;8.53;4.73;;;1.40;78.60;;;;;;5088257;28;20309;-70
2021/04/10 05:06:58;;;;;;;8.87;5.07;;;1.40;78.80;;;;;;5091556;28;20186;-70
2021/04/10 05:09:23;;;;;;;7.37;4.00;;;1.50;78.60;;;;;;5089056;28;20898;-70
2021/04/10 05:11:50;;;;;;;4.17;3.70;;;1.50;78.60;;;;;;5095898;28;20216;-69
2021/04/10 05:14:16;;;;;;;5.37;3.67;;;1.50;78.70;;;;;;5088536;28;20327;-69
2021/04/10 05:16:42;;;;;;;3.17;2.97;;;1.60;79.20;;;;;;5099585;28;20253;-69
2021/04/10 05:19:07;;;;;;;4.40;2.90;;;1.70;79.30;;;;;;5094830;28;20254;-69
2021/04/10 05:21:34;;;;;;;6.43;3.67;;;1.70;79.30;;;;;;5088813;28;20182;-69
2021/04/10 05:23:59;;;;;;;4.47;2.90;;;1.80;79.30;;;;;;5087667;28;20185;-69
2021/04/10 05:26:25;;;;;;;4.17;3.40;;;1.80;79.20;;;;;;5095406;28;20662;-69
2021/04/10 05:28:51;;;;;;;3.93;3.63;;;1.90;78.50;;;;;;5090345;28;20182;-69
2021/04/10 05:31:17;;;;;;;11.87;3.90;;;2.00;78.20;;;;;;5093130;28;20205;-69
2021/04/10 05:33:45;;;;;;;6.23;3.30;;;2.10;78.50;;;;;;5096369;28;20177;-69
2021/04/10 05:36:11;;;;;;;3.67;3.33;;;2.10;78.40;;;;;;5094511;28;20189;-70
2021/04/10 05:38:38;;;;;;;5.70;3.53;;;2.20;78.10;;;;;;5090502;28;20227;-69
2021/04/10 05:41:03;;;;;;;4.67;3.20;;;2.20;77.60;;;;;;5098488;28;20187;-69
2021/04/10 05:43:29;;;;;;;3.80;3.50;;;2.30;77.20;;;;;;5093040;28;20208;-69
2021/04/10 05:45:55;;;;;;;6.57;3.80;;;2.30;76.90;;;;;;5094604;28;20265;-71
2021/04/10 05:48:21;;;;;;;3.70;3.17;;;2.40;76.90;;;;;;5095583;28;20761;-69
2021/04/10 05:50:46;;;;;;;4.27;3.87;;;2.50;76.90;;;;;;5094812;28;20235;-69
2021/04/10 05:53:12;;;;;;;6.53;3.63;;;2.50;76.70;;;;;;5092657;28;20182;-69
2021/04/10 05:55:38;;;;;;;8.80;4.10;;;2.60;76.30;;;;;;5097724;28;20228;-71
2021/04/10 05:58:03;;;;;;;4.50;3.63;;;2.70;76.00;;;;;;5091658;28;20174;-70
2021/04/10 06:00:48;;;;;;;7.07;4.77;;;2.70;75.60;;;;;;5094147;28;20185;-70
2021/04/10 06:03:16;;;;;;;5.60;3.73;;;2.80;75.60;;;;;;5091791;28;20246;-70
2021/04/10 06:05:46;;;;;;;4.53;4.20;;;2.90;75.40;;;;;;5094724;28;20591;-70
2021/04/10 06:08:12;;;;;;;4.03;3.53;;;2.90;75.10;;;;;;5091895;28;20193;-70
2021/04/10 06:10:38;;;;;;;5.97;4.80;;;3.00;74.90;;;;;;5090786;28;20213;-71
2021/04/10 06:13:03;;;;;;;5.13;4.00;;;3.10;74.80;;;;;;5092835;28;20208;-70
2021/04/10 06:15:29;;;;;;;3.70;3.40;;;3.10;74.70;;;;;;5092684;28;20269;-70
2021/04/10 06:17:55;;;;;;;5.77;3.90;;;3.20;74.50;;;;;;5094971;28;20201;-69
2021/04/10 06:20:21;;;;;;;10.23;4.83;;;3.30;74.20;;;;;;5095048;28;20177;-70
2021/04/10 06:22:47;;;;;;;5.97;4.03;;;3.30;73.90;;;;;;5093016;28;20180;-71
2021/04/10 06:25:13;;;;;;;5.03;4.53;;;3.40;73.80;;;;;;5092367;28;20208;-69
2021/04/10 06:27:39;;;;;;;5.57;3.77;;;3.50;73.00;;;;;;5089902;28;20174;-69
2021/04/10 06:30:05;;;;;;;3.43;3.17;;;3.60;73.40;;;;;;5069329;28;20674;-68
2021/04/10 06:32:31;;;;;;;3.73;3.47;;;3.70;73.30;;;;;;5090647;28;20214;-68
2021/04/10 06:34:57;;;;;;;3.03;2.70;;;3.70;72.90;;;;;;5089105;28;20255;-70
2021/04/10 06:37:23;;;;;;;2.17;2.07;;;3.80;72.30;;;;;;5095385;28;20166;-69
2021/04/10 06:39:49;;;;;;;3.83;2.40;;;3.80;71.70;;;;;;5092772;28;20187;-70
2021/04/10 06:42:14;;;;;;;3.73;2.90;;;3.90;71.70;;;;;;5094645;28;20181;-70
2021/04/10 06:44:41;;;;;;;2.63;2.43;;;4.00;71.80;;;;;;5089946;28;20231;-68
2021/04/10 06:47:07;;;;;;;3.03;2.03;;;4.10;71.80;;;;;;5109791;28;20178;-69
2021/04/10 06:49:33;;;;;;;3.77;2.93;;;4.20;71.40;;;;;;5095178;28;20189;-70
2021/04/10 06:52:00;;;;;;;2.17;2.03;;;4.30;71.30;;;;;;5093269;28;20209;-67
2021/04/10 06:54:34;;;;;;;2.70;2.50;;;4.40;71.10;;;;;;5090114;28;20186;-67
2021/04/10 06:57:06;;;;;;;4.60;2.53;;;4.50;70.50;;;;;;5092840;28;20321;-67
2021/04/10 06:59:40;;;;;;;6.27;3.27;;;4.50;69.90;;;;;;5096911;28;20174;-67
2021/04/10 07:02:10;;;;;;;4.20;3.43;;;4.60;70.30;;;;;;5089272;28;20190;-67
2021/04/10 07:04:39;;;;;;;5.13;3.90;;;4.70;70.00;;;;;;5091897;28;20784;-67
2021/04/10 07:07:05;;;;;;;3.87;3.67;;;4.80;69.40;;;;;;5090731;28;20193;-67
2021/04/10 07:09:34;;;;;;;7.73;4.03;;;4.90;68.60;;;;;;5085439;28;20654;-67
2021/04/10 07:12:00;;;;;;;5.23;3.80;;;5.00;69.00;;;;;;5086155;28;20227;-67
2021/04/10 07:14:26;;;;;;;3.30;3.10;;;5.10;69.10;;;;;;5087243;28;20191;-65
2021/04/10 07:16:52;;;;;;;3.27;2.93;;;5.20;69.00;;;;;;5090730;28;20189;-66
2021/04/10 07:19:17;;;;;;;5.73;3.37;;;5.30;68.20;;;;;;5087646;28;20182;-67
2021/04/10 07:21:43;;;;;;;5.43;3.30;;;5.30;68.10;;;;;;5090154;28;20210;-67
2021/04/10 07:24:09;;;;;;;4.77;3.10;;;5.40;68.40;;;;;;5089078;28;20190;-67
2021/04/10 07:27:04;;;;;;;4.23;3.83;;;5.50;68.10;;;;;;5093433;28;20898;-68
2021/04/10 07:29:43;;;;;;;6.37;3.23;;;5.60;68.00;;;;;;5034289;28;20686;-68
2021/04/10 07:32:33;;;;;;;6.10;4.27;;;5.70;67.60;;;;;;5029510;28;20264;-67
2021/04/10 07:35:03;;;;;;;5.37;3.63;;;5.80;67.10;;;;;;5037890;28;20211;-67
2021/04/10 07:37:38;;;;;;;7.03;4.20;;;5.90;67.30;;;;;;5027412;28;20711;-67
2021/04/10 07:40:13;;;;;;;9.40;4.40;;;6.00;67.10;;;;;;5031903;28;20206;-65
2021/04/10 07:42:44;;;;;;;3.90;3.60;;;6.10;66.00;;;;;;5035944;28;20286;-66
2021/04/10 07:45:22;;;;;;;3.90;3.53;;;6.20;66.50;;;;;;5037389;28;20184;-67
2021/04/10 07:47:48;;;;;;;4.63;3.87;;;6.20;66.70;;;;;;5038334;28;20192;-67
2021/04/10 07:50:18;;;;;;;3.40;3.10;;;6.30;66.50;;;;;;5040589;28;20187;-68
2021/04/10 07:52:44;;;;;;;3.70;3.40;;;6.40;65.40;;;;;;5035193;28;20196;-67
2021/04/10 07:55:37;;;;;;;4.23;3.97;;;6.60;66.00;;;;;;5037506;28;20345;-66
2021/04/10 07:58:28;;;;;;;7.17;4.00;;;6.70;66.00;;;;;;5036182;28;20782;-66
2021/04/10 08:00:57;;;;;;;5.53;4.57;;;6.80;64.60;;;;;;5034895;28;20187;-66
2021/04/10 08:03:29;;;;;;;8.17;4.60;;;6.90;64.90;;;;;;5034584;28;20241;-67
2021/04/10 08:05:55;;;;;;;5.50;4.60;;;7.00;65.20;;;;;;5061949;28;20612;-66
2021/04/10 08:08:25;;;;;;;4.87;4.40;;;7.10;64.80;;;;;;5093362;28;20233;-66
2021/04/10 08:11:05;;;;;;;5.37;4.33;;;7.20;65.10;;;;;;5090696;28;20197;-66
2021/04/10 08:13:32;;;;;;;7.67;4.43;;;7.40;65.10;;;;;;5093895;28;20256;-67
2021/04/10 08:16:15;;;;;;;6.10;4.87;;;7.50;63.50;;;;;;5091414;28;20329;-67
2021/04/10 08:19:03;;;;;;;7.37;4.47;;;7.60;63.80;;;;;;5096832;28;20234;-67
2021/04/10 08:21:31;;;;;;;5.50;5.00;;;7.80;63.80;;;;;;5089555;28;20185;-66
2021/04/10 08:23:58;;;;;;;6.57;4.03;;;8.00;63.00;;;;;;5092103;28;20260;-67
2021/04/10 08:26:24;;;;;;;7.80;5.37;;;8.10;62.90;;;;;;5091182;28;20182;-66
2021/04/10 08:28:50;;;;;;;5.73;4.77;;;8.20;61.30;;;;;;5092039;28;20188;-67
2021/04/10 08:31:17;;;;;;;5.50;4.80;;;8.30;61.70;;;;;;5093476;28;20221;-67
2021/04/10 08:33:43;;;;;;;13.23;4.47;;;8.50;62.60;;;;;;5088169;28;20600;-66
2021/04/10 08:36:10;;;;;;;6.30;5.07;;;8.60;62.40;;;;;;5092575;28;20182;-68
2021/04/10 08:38:38;;;;;;;7.40;4.33;;;8.80;61.20;;;;;;5074850;28;20777;-65
2021/04/10 08:41:06;;;;;;;5.20;4.63;;;9.00;61.00;;;;;;5089093;28;20666;-65
2021/04/10 08:43:35;;;;;;;7.80;4.90;;;9.20;60.60;;;;;;5073663;28;20216;-66
2021/04/10 08:46:04;;;;;;;3.97;3.67;;;9.40;60.20;;;;;;5093686;28;20204;-66
2021/04/10 08:48:31;;;;;;;5.03;4.60;;;9.80;59.00;;;;;;5091732;28;20636;-67
2021/04/10 08:51:00;;;;;;;3.87;3.57;;;10.20;58.40;;;;;;5086576;28;20198;-67
2021/04/10 08:53:30;;;;;;;5.00;4.43;;;10.50;57.10;;;;;;5090316;28;20181;-66
2021/04/10 08:55:56;;;;;;;5.70;3.27;;;10.90;57.10;;;;;;5092689;28;20594;-67
2021/04/10 08:58:29;;;;;;;4.35;3.80;;;11.50;56.20;;;;;;5095731;28;20170;-67
2021/04/10 09:00:56;;;;;;;4.60;3.90;;;11.90;54.60;;;;;;5092216;28;20170;-67
2021/04/10 09:03:44;;;;;;;5.78;4.10;;;12.50;53.60;;;;;;5090107;28;20228;-67
2021/04/10 09:06:33;;;;;;;5.25;4.55;;;13.20;53.30;;;;;;5090254;28;20175;-67
2021/04/10 09:09:11;;;;;;;4.55;3.75;;;13.90;51.50;;;;;;4985108;28;20351;-67
2021/04/10 09:11:46;;;;;;;7.45;3.95;;;14.70;50.90;;;;;;4968262;28;20217;-67
2021/04/10 09:14:13;;;;;;;5.57;4.43;;;15.30;50.10;;;;;;4982671;28;20760;-67
2021/04/10 09:16:52;;;;;;;3.28;3.00;;;16.40;49.10;;;;;;4983185;28;20670;-67
2021/04/10 09:19:23;;;;;;;4.18;3.00;;;17.60;46.70;;;;;;4980452;28;20263;-67
2021/04/10 09:21:51;;;;;;;3.45;3.30;;;18.60;46.10;;;;;;4981698;28;20236;-65
2021/04/10 09:24:50;;;;;;;3.22;3.05;;;19.20;44.40;;;;;;4982176;28;20186;-65
2021/04/10 09:27:29;;;;;;;3.45;3.15;;;19.30;44.00;;;;;;4906034;29;21025;-65
2021/04/10 09:29:59;;;;;;;4.15;3.15;;;19.70;43.40;;;;;;4907959;29;20188;-67
2021/04/10 09:32:44;;;;;;;8.65;2.80;;;20.20;44.00;;;;;;4905814;29;20227;-67
2021/04/10 09:35:12;;;;;;;3.17;2.67;;;20.90;41.70;;;;;;4905223;29;20203;-67
2021/04/10 09:37:38;;;;;;;3.00;2.80;;;21.00;41.10;;;;;;4905558;29;20202;-67
2021/04/10 09:40:08;;;;;;;4.22;3.83;;;21.30;42.20;;;;;;4906629;29;20761;-67
2021/04/10 09:42:44;;;;;;;4.13;3.75;;;21.80;42.60;;;;;;4906816;29;20275;-67
2021/04/10 09:45:10;;;;;;;3.08;2.88;;;22.60;42.20;;;;;;4915842;28;20196;-67
2021/04/10 09:47:54;;;;;;;3.60;3.08;;;23.20;41.20;;;;;;4992369;28;20604;-67
2021/04/10 09:50:21;;;;;;;3.50;3.20;;;23.90;39.80;;;;;;4997593;28;20193;-67
2021/04/10 09:52:56;;;;;;;3.50;3.30;;;24.20;38.50;;;;;;4992339;28;20193;-67
2021/04/10 09:55:24;;;;;;;3.22;2.97;;;24.10;36.70;;;;;;4995500;28;20212;-67
2021/04/10 09:58:13;;;;;;;2.85;2.60;;;24.00;38.30;;;;;;4993958;28;20613;-67
2021/04/10 10:00:44;;;;;;;2.83;2.60;;;23.90;37.60;;;;;;4934206;29;20236;-67
2021/04/10 10:03:13;;;;;;;3.00;2.70;;;23.90;39.80;;;;;;4961176;28;20287;-67
2021/04/10 10:05:40;;;;;;;3.22;2.78;;;24.20;38.30;;;;;;5013633;28;20192;-67
2021/04/10 10:08:12;;;;;;;2.70;2.60;;;24.20;38.30;;;;;;5012003;28;20812;-67
2021/04/10 10:10:43;;;;;;;4.55;2.58;;;24.40;38.80;;;;;;5011761;28;20634;-67
2021/04/10 10:13:17;;;;;;;3.00;2.80;;;24.70;37.60;;;;;;5014436;28;20669;-67
2021/04/10 10:15:45;;;;;;;3.15;2.63;;;25.10;37.90;;;;;;5010975;28;20257;-67
2021/04/10 10:18:15;;;;;;;2.90;2.67;;;25.60;38.20;;;;;;5013625;28;20214;-68
2021/04/10 10:20:52;;;;;;;2.45;2.33;;;26.10;37.90;;;;;;5010375;28;20197;-67
2021/04/10 10:23:18;;;;;;;2.92;2.60;;;26.60;36.90;;;;;;5007072;28;20280;-68
2021/04/10 10:25:45;;;;;;;4.10;2.17;;;26.80;36.30;;;;;;5009017;28;20280;-67
2021/04/10 10:28:17;;;;;;;5.30;2.60;;;26.80;37.20;;;;;;5013310;28;20668;-67
2021/04/10 10:30:44;;;;;;;3.25;2.88;;;26.90;38.10;;;;;;5006606;28;20309;-67
2021/04/10 10:33:10;;;;;;;3.20;2.88;;;27.40;37.20;;;;;;5013729;28;20271;-67
2021/04/10 10:35:36;;;;;;;2.97;2.55;;;27.50;36.20;;;;;;5010663;28;20271;-67
2021/04/10 10:38:07;;;;;;;2.83;2.70;;;27.70;37.40;;;;;;5067578;28;20185;-67
2021/04/10 10:40:33;;;;;;;2.92;2.83;;;28.30;36.90;;;;;;5094794;28;20259;-68
2021/04/10 10:43:09;;;;;;;2.42;2.22;;;28.60;34.20;;;;;;5095933;28;20563;-67
2021/04/10 10:45:55;;;;;;;2.90;2.63;;;28.90;35.00;;;;;;5095634;28;20181;-67
2021/04/10 10:48:33;;;;;;;2.67;2.50;;;29.10;34.00;;;;;;5094592;28;20685;-67
2021/04/10 10:50:58;;;;;;;2.72;2.53;;;29.00;35.60;;;;;;5092453;28;20262;-69
2021/04/10 10:53:45;;;;;;;2.78;2.67;;;29.10;35.90;;;;;;5094164;28;20186;-69
2021/04/10 10:56:31;;;;;;;2.97;2.88;;;29.60;34.90;;;;;;5094343;28;20186;-69
2021/04/10 10:59:01;;;;;;;2.42;2.30;;;29.70;33.30;;;;;;5093139;28;20214;-67
2021/04/10 11:01:28;;;;;;;2.90;2.70;;;29.90;35.40;;;;;;5096731;28;20178;-69
2021/04/10 11:03:59;;;;;;;3.33;3.13;;;30.30;34.10;;;;;;5091844;28;20189;-69
2021/04/10 11:06:27;;;;;;;2.60;2.60;;;30.80;35.50;;;;;;5094810;28;20186;-68
2021/04/10 11:08:54;;;;;;;2.53;2.30;;;31.30;33.80;;;;;;5099887;28;20677;-69
2021/04/10 11:11:23;;;;;;;2.20;2.20;;;31.10;32.70;;;;;;5096347;28;20244;-68
2021/04/10 11:13:49;;;;;;;2.97;2.78;;;31.00;33.40;;;;;;5097516;28;20186;-68
2021/04/10 11:16:16;;;;;;;3.10;2.90;;;31.30;35.00;;;;;;5098550;28;20223;-68
2021/04/10 11:18:43;;;;;;;3.08;2.88;;;31.60;35.80;;;;;;5094270;28;20193;-68
2021/04/10 11:21:11;;;;;;;5.93;2.97;;;31.90;35.30;;;;;;5091727;28;20185;-68
2021/04/10 11:23:56;;;;;;;3.35;3.20;;;32.20;34.90;;;;;;5089566;28;20178;-69
2021/04/10 11:26:45;;;;;;;3.08;2.97;;;32.10;32.60;;;;;;5092569;28;20182;-68
2021/04/10 11:29:29;;;;;;;3.03;2.83;;;32.30;33.60;;;;;;5095097;28;20181;-68
2021/04/10 11:32:14;;;;;;;3.22;3.03;;;32.70;34.00;;;;;;5094878;28;20201;-70
2021/04/10 11:34:47;;;;;;;4.53;3.03;;;32.90;32.60;;;;;;5092051;28;20185;-70
2021/04/10 11:37:18;;;;;;;2.95;2.83;;;32.90;33.90;;;;;;5093174;28;20224;-70
2021/04/10 11:39:51;;;;;;;5.15;2.90;;;32.70;33.80;;;;;;5095835;28;20186;-69
2021/04/10 11:42:25;;;;;;;3.65;2.92;;;32.30;32.50;;;;;;5090136;28;20214;-68
2021/04/10 11:44:51;;;;;;;4.53;2.75;;;32.10;35.00;;;;;;5092753;28;20646;-69
2021/04/10 11:47:28;;;;;;;2.72;2.42;;;32.20;34.70;;;;;;5092398;28;20194;-68
2021/04/10 11:50:25;;;;;;;3.85;2.92;;;32.50;34.50;;;;;;5088550;28;20600;-68
2021/04/10 11:52:50;;;;;;;2.95;2.63;;;32.80;33.00;;;;;;5089484;28;20202;-69
2021/04/10 11:55:18;;;;;;;2.25;2.05;;;32.70;32.70;;;;;;5092520;28;20180;-69
2021/04/10 11:57:46;;;;;;;2.47;2.35;;;32.70;34.40;;;;;;5089366;28;20257;-68
2021/04/10 12:00:14;;;;;;;2.72;2.55;;;32.90;34.10;;;;;;5078718;28;20174;-69
2021/04/10 12:02:45;;;;;;;2.55;2.47;;;33.00;34.20;;;;;;5090458;28;20213;-68
2021/04/10 12:05:35;;;;;;;2.20;2.10;;;33.10;33.40;;;;;;5095282;28;20194;-69
2021/04/10 12:08:14;;;;;;;2.35;2.25;;;33.10;31.90;;;;;;5086869;28;20181;-70
2021/04/10 12:10:48;;;;;;;2.42;2.25;;;33.20;33.10;;;;;;5094936;28;20238;-70
2021/04/10 12:13:16;;;;;;;2.25;2.05;;;33.40;34.40;;;;;;5093236;28;20221;-70
2021/04/10 12:15:42;;;;;;;2.90;2.72;;;33.70;33.80;;;;;;5091539;28;20934;-70
2021/04/10 12:18:10;;;;;;;7.03;2.70;;;33.70;32.80;;;;;;5092572;28;20217;-69
2021/04/10 12:20:38;;;;;;;2.90;2.70;;;33.80;34.30;;;;;;5092402;28;20174;-70
2021/04/10 12:23:04;;;;;;;2.22;2.03;;;33.60;32.90;;;;;;5096208;28;20177;-68
2021/04/10 12:25:30;;;;;;;2.70;2.50;;;33.60;33.90;;;;;;5094783;28;20185;-69
2021/04/10 12:27:56;;;;;;;2.80;2.58;;;33.50;34.60;;;;;;5101217;28;20173;-70
2021/04/10 12:30:22;;;;;;;2.45;2.35;;;33.40;32.00;;;;;;5091714;28;20178;-70
2021/04/10 12:32:48;;;;;;;2.75;2.55;;;33.50;32.20;;;;;;5092722;28;20182;-69
2021/04/10 12:35:14;;;;;;;2.15;2.05;;;33.60;32.00;;;;;;5091814;28;20270;-70
2021/04/10 12:37:39;;;;;;;2.28;2.22;;;33.30;32.40;;;;;;5094981;28;20182;-70
2021/04/10 12:40:06;;;;;;;5.50;2.80;;;32.70;31.50;;;;;;5092321;28;20216;-67
2021/04/10 12:42:37;;;;;;;3.80;2.38;;;32.50;33.00;;;;;;5093288;28;20174;-69
2021/04/10 12:45:04;;;;;;;2.55;2.35;;;32.50;32.00;;;;;;5090458;28;20186;-70
2021/04/10 12:47:30;;;;;;;3.75;2.30;;;32.40;31.10;;;;;;5089624;28;20273;-68
2021/04/10 12:49:55;;;;;;;1.92;1.83;;;32.20;32.40;;;;;;5089622;28;20534;-68
2021/04/10 12:52:22;;;;;;;2.90;2.15;;;32.40;33.70;;;;;;5093629;28;20223;-71
2021/04/10 12:54:48;;;;;;;2.90;2.50;;;32.60;32.40;;;;;;5093028;28;20296;-69
2021/04/10 12:57:13;;;;;;;4.20;2.35;;;32.40;33.30;;;;;;5070568;28;21867;-69
2021/04/10 12:59:39;;;;;;;2.47;2.38;;;32.50;33.00;;;;;;5092586;28;20186;-69
2021/04/10 13:04:49;;;;;;;2.30;2.00;;;32.90;31.90;;;;;;5092477;28;21539;-69
2021/04/10 13:07:15;;;;;;;2.25;2.15;;;33.00;32.60;;;;;;5095840;28;20186;-69